createdAt,value
2023-05-23T00:01:26.135Z,90.00
2023-05-23T00:04:18.913Z,90.10
2023-05-23T00:07:06.143Z,90.20
2023-05-23T00:09:53.495Z,90.40
2023-05-23T00:12:42.567Z,90.40
2023-05-23T00:15:29.449Z,90.40
2023-05-23T00:18:16.884Z,90.50
2023-05-23T00:21:05.321Z,90.60
2023-05-23T00:23:53.908Z,90.60
2023-05-23T00:26:40.928Z,90.60
2023-05-23T00:29:28.209Z,90.80
2023-05-23T00:32:15.186Z,90.70
2023-05-23T00:35:02.216Z,90.70
2023-05-23T00:37:52.161Z,90.80
2023-05-23T00:40:39.486Z,90.80
2023-05-23T00:43:26.516Z,90.60
2023-05-23T00:46:14.013Z,90.50
2023-05-23T00:49:00.947Z,90.60
2023-05-23T00:51:49.854Z,90.50
2023-05-23T00:54:40.751Z,90.50
2023-05-23T00:57:27.879Z,90.40
2023-05-23T01:00:15.935Z,90.40
2023-05-23T01:03:03.292Z,90.40
2023-05-23T01:05:50.256Z,90.30
2023-05-23T01:08:37.256Z,90.30
2023-05-23T01:11:36.690Z,90.50
2023-05-23T01:14:31.006Z,90.30
2023-05-23T01:17:25.663Z,90.30
2023-05-23T01:20:17.144Z,90.40
2023-05-23T01:23:22.280Z,90.30
2023-05-23T01:26:26.449Z,90.40
2023-05-23T01:29:21.240Z,90.40
2023-05-23T01:32:13.607Z,90.40
2023-05-23T01:35:02.056Z,90.40
2023-05-23T01:37:49.273Z,90.30
2023-05-23T01:40:36.397Z,90.30
2023-05-23T01:43:24.366Z,90.50
2023-05-23T01:46:15.439Z,90.40
2023-05-23T01:49:06.431Z,90.40
2023-05-23T01:51:53.664Z,90.30
2023-05-23T01:54:43.749Z,90.20
2023-05-23T01:57:32.022Z,90.30
2023-05-23T02:00:19.879Z,90.40
2023-05-23T02:03:09.702Z,90.50
2023-05-23T02:05:57.049Z,90.40
2023-05-23T02:08:44.332Z,90.40
2023-05-23T02:11:31.458Z,90.40
2023-05-23T02:14:18.972Z,90.50
2023-05-23T02:17:06.528Z,90.50
2023-05-23T02:19:55.072Z,90.60
2023-05-23T02:22:41.963Z,90.50
2023-05-23T02:25:28.924Z,90.60
2023-05-23T02:28:16.120Z,90.60
2023-05-23T02:31:03.867Z,90.70
2023-05-23T02:33:50.694Z,90.90
2023-05-23T02:36:39.435Z,90.80
2023-05-23T02:39:26.851Z,91.30
2023-05-23T02:42:14.557Z,90.90
2023-05-23T02:45:01.896Z,91.00
2023-05-23T02:47:48.964Z,91.00
2023-05-23T02:50:36.078Z,91.20
2023-05-23T02:53:24.413Z,91.20
2023-05-23T02:56:13.388Z,91.30
2023-05-23T02:59:00.507Z,91.40
2023-05-23T03:01:47.441Z,91.50
2023-05-23T03:04:34.863Z,91.60
2023-05-23T03:07:28.213Z,91.70
2023-05-23T03:10:18.386Z,91.80
2023-05-23T03:13:05.872Z,91.90
2023-05-23T03:15:52.984Z,92.00
2023-05-23T03:18:42.037Z,92.20
2023-05-23T03:21:29.398Z,92.20
2023-05-23T03:24:16.704Z,92.20
2023-05-23T03:27:05.673Z,92.30
2023-05-23T03:29:53.101Z,92.30
2023-05-23T03:32:40.518Z,92.30
2023-05-23T03:35:27.869Z,92.50
2023-05-23T03:38:14.697Z,92.40
2023-05-23T03:41:01.919Z,92.40
2023-05-23T03:43:50.602Z,92.40
2023-05-23T03:46:37.979Z,92.50
2023-05-23T03:49:27.190Z,92.50
2023-05-23T03:52:14.575Z,92.60
2023-05-23T03:55:01.891Z,92.60
2023-05-23T03:57:49.764Z,92.70
2023-05-23T04:00:39.495Z,92.70
2023-05-23T04:03:28.393Z,92.70
2023-05-23T04:06:17.488Z,92.80
2023-05-23T04:09:07.711Z,92.80
2023-05-23T04:11:59.804Z,92.80
2023-05-23T04:14:50.271Z,92.90
2023-05-23T04:17:39.881Z,92.90
2023-05-23T04:20:27.620Z,92.90
2023-05-23T04:23:14.782Z,92.90
2023-05-23T04:26:05.896Z,92.90
2023-05-23T04:28:56.489Z,92.90
2023-05-23T04:31:46.390Z,93.30
2023-05-23T04:34:35.763Z,92.90
2023-05-23T04:37:26.412Z,92.90
2023-05-23T04:40:14.919Z,92.90
2023-05-23T04:43:22.457Z,92.90
2023-05-23T04:46:15.043Z,93.00
2023-05-23T04:49:05.150Z,93.10
2023-05-23T04:51:53.409Z,93.00
2023-05-23T04:54:49.771Z,93.00
2023-05-23T04:57:37.588Z,93.00
2023-05-23T05:00:27.006Z,93.40
2023-05-23T05:03:14.422Z,92.80
2023-05-23T05:06:06.252Z,92.80
2023-05-23T05:08:54.407Z,92.80
2023-05-23T05:11:41.974Z,92.60
2023-05-23T05:14:28.938Z,92.60
2023-05-23T05:17:16.042Z,92.60
2023-05-23T05:20:20.090Z,92.40
2023-05-23T05:23:09.975Z,92.30
2023-05-23T05:26:00.864Z,92.20
2023-05-23T05:28:48.632Z,92.20
2023-05-23T05:31:37.710Z,92.10
2023-05-23T05:34:25.330Z,91.90
2023-05-23T05:37:14.421Z,91.70
2023-05-23T05:40:06.919Z,91.40
2023-05-23T05:42:58.017Z,91.40
2023-05-23T05:45:45.749Z,91.30
2023-05-23T05:48:32.901Z,91.10
2023-05-23T05:51:24.741Z,90.80
2023-05-23T05:54:12.015Z,90.40
2023-05-23T05:56:58.925Z,90.00
2023-05-23T05:59:48.543Z,89.70
2023-05-23T06:02:36.839Z,89.30
2023-05-23T06:05:24.480Z,89.20
2023-05-23T06:08:11.685Z,89.40
2023-05-23T06:10:58.956Z,88.90
2023-05-23T06:13:47.241Z,88.60
2023-05-23T06:16:36.676Z,88.00
2023-05-23T06:19:23.741Z,86.50
2023-05-23T06:22:11.075Z,86.90
2023-05-23T06:24:58.680Z,85.40
2023-05-23T06:27:46.404Z,85.20
2023-05-23T06:30:35.433Z,84.90
2023-05-23T06:33:24.384Z,84.30
2023-05-23T06:36:11.358Z,84.30
2023-05-23T06:38:58.570Z,84.10
2023-05-23T06:41:45.899Z,84.10
2023-05-23T06:44:32.972Z,83.40
2023-05-23T06:47:23.460Z,82.40
2023-05-23T06:50:12.942Z,82.20
2023-05-23T06:53:00.926Z,81.70
2023-05-23T06:55:47.985Z,81.40
2023-05-23T06:58:38.216Z,80.90
2023-05-23T07:01:25.705Z,79.90
2023-05-23T07:04:14.420Z,78.60
2023-05-23T07:07:03.361Z,77.50
2023-05-23T07:09:51.437Z,77.70
2023-05-23T07:12:39.981Z,76.70
2023-05-23T07:15:27.706Z,76.50
2023-05-23T07:18:25.328Z,75.30
2023-05-23T07:21:12.393Z,74.20
2023-05-23T07:24:01.345Z,73.80
2023-05-23T07:26:49.614Z,74.30
2023-05-23T07:29:37.874Z,74.60
2023-05-23T07:32:24.993Z,75.00
2023-05-23T07:35:13.434Z,75.00
2023-05-23T07:38:00.939Z,75.50
2023-05-23T07:40:55.636Z,75.80
2023-05-23T07:43:50.268Z,76.30
2023-05-23T07:46:37.519Z,75.60
2023-05-23T07:49:24.555Z,75.20
2023-05-23T07:52:13.309Z,75.30
2023-05-23T07:55:01.310Z,75.20
2023-05-23T07:57:55.042Z,76.00
2023-05-23T08:00:44.338Z,75.30
2023-05-23T08:03:45.902Z,75.60
2023-05-23T08:06:48.451Z,76.00
2023-05-23T08:09:48.083Z,76.10
2023-05-23T08:12:39.101Z,76.10
2023-05-23T08:15:32.889Z,76.40
2023-05-23T08:18:31.014Z,77.00
2023-05-23T08:21:18.302Z,77.30
2023-05-23T08:24:05.807Z,77.40
2023-05-23T08:26:53.294Z,77.40
2023-05-23T08:29:42.250Z,78.10
2023-05-23T08:32:31.270Z,77.10
2023-05-23T08:35:18.945Z,76.80
2023-05-23T08:38:09.198Z,76.80
2023-05-23T08:41:03.249Z,76.90
2023-05-23T08:43:51.906Z,76.30
2023-05-23T08:46:49.493Z,75.60
2023-05-23T08:49:54.066Z,75.80
2023-05-23T08:52:49.453Z,75.30
2023-05-23T08:55:38.765Z,75.40
2023-05-23T08:58:29.374Z,76.40
2023-05-23T09:01:20.660Z,76.40
2023-05-23T09:04:13.636Z,75.60
2023-05-23T09:07:12.793Z,75.40
2023-05-23T09:10:00.146Z,76.10
2023-05-23T09:12:47.684Z,75.70
2023-05-23T09:15:35.364Z,75.60
2023-05-23T09:18:23.802Z,75.10
2023-05-23T09:21:12.819Z,74.50
2023-05-23T09:24:10.941Z,73.90
2023-05-23T09:26:58.393Z,73.00
2023-05-23T09:29:47.817Z,73.70
2023-05-23T09:32:35.224Z,74.40
2023-05-23T09:35:24.836Z,75.60
2023-05-23T09:38:13.007Z,75.20
2023-05-23T09:41:01.937Z,74.60
2023-05-23T09:43:53.497Z,74.50
2023-05-23T09:46:41.312Z,75.00
2023-05-23T09:49:28.843Z,75.00
2023-05-23T09:52:16.147Z,75.40
2023-05-23T09:55:03.472Z,75.60
2023-05-23T09:57:57.023Z,76.00
2023-05-23T10:00:45.313Z,77.00
2023-05-23T10:03:38.417Z,76.30
2023-05-23T10:06:28.017Z,76.10
2023-05-23T10:09:20.626Z,75.80
2023-05-23T10:12:34.707Z,76.00
2023-05-23T10:15:21.526Z,76.10
2023-05-23T10:18:17.690Z,75.80
2023-05-23T10:21:11.593Z,74.90
2023-05-23T10:24:01.198Z,75.80
2023-05-23T10:26:49.341Z,76.30
2023-05-23T10:29:37.942Z,76.30
2023-05-23T10:32:27.512Z,76.10
2023-05-23T10:35:24.102Z,76.20
2023-05-23T10:38:24.383Z,76.40
2023-05-23T10:41:15.041Z,76.70
2023-05-23T10:44:10.990Z,77.60
2023-05-23T10:47:02.130Z,77.30
2023-05-23T10:49:55.213Z,77.40
2023-05-23T10:52:45.182Z,76.30
2023-05-23T10:55:36.797Z,76.50
2023-05-23T10:58:24.316Z,74.30
2023-05-23T11:01:16.857Z,74.10
2023-05-23T11:04:07.823Z,72.00
2023-05-23T11:06:55.732Z,71.70
2023-05-23T11:10:06.179Z,70.70
2023-05-23T11:13:08.284Z,69.90
2023-05-23T11:15:55.600Z,68.70
2023-05-23T11:18:45.861Z,68.40
2023-05-23T11:21:33.470Z,67.80
2023-05-23T11:24:20.780Z,68.00
2023-05-23T11:27:13.980Z,67.40
2023-05-23T11:30:05.654Z,66.20
2023-05-23T11:32:54.459Z,67.00
2023-05-23T11:35:42.742Z,66.90
2023-05-23T11:38:30.219Z,67.10
2023-05-23T11:41:17.292Z,66.00
2023-05-23T11:44:13.436Z,64.90
2023-05-23T11:47:02.849Z,65.40
2023-05-23T11:49:50.237Z,63.70
2023-05-23T11:52:38.038Z,62.20
2023-05-23T11:55:25.719Z,63.60
2023-05-23T11:58:12.919Z,63.60
2023-05-23T12:01:03.777Z,61.20
2023-05-23T12:03:52.955Z,60.00
2023-05-23T12:06:41.977Z,61.80
2023-05-23T12:09:29.206Z,61.00
2023-05-23T12:12:16.929Z,60.00
2023-05-23T12:15:05.071Z,59.70
2023-05-23T12:17:57.329Z,60.60
2023-05-23T12:20:44.689Z,61.10
2023-05-23T12:23:34.438Z,62.30
2023-05-23T12:26:23.419Z,61.90
2023-05-23T12:29:10.234Z,60.50
2023-05-23T12:31:59.214Z,59.20
2023-05-23T12:34:47.841Z,59.40
2023-05-23T12:37:35.179Z,61.00
2023-05-23T12:40:22.289Z,60.90
2023-05-23T12:43:11.214Z,59.40
2023-05-23T12:45:58.611Z,58.80
2023-05-23T12:48:45.620Z,58.70
2023-05-23T12:51:37.733Z,59.40
2023-05-23T12:54:24.592Z,59.10
2023-05-23T12:57:12.445Z,60.30
2023-05-23T13:00:00.218Z,60.00
2023-05-23T13:02:47.965Z,59.50
2023-05-23T13:05:35.474Z,59.60
2023-05-23T13:08:24.443Z,59.10
2023-05-23T13:11:11.958Z,59.20
2023-05-23T13:13:59.127Z,58.60
2023-05-23T13:16:46.321Z,58.20
2023-05-23T13:19:33.487Z,58.30
2023-05-23T13:22:20.625Z,58.00
2023-05-23T13:25:09.798Z,57.50
2023-05-23T13:27:57.607Z,56.50
2023-05-23T13:30:47.055Z,57.50
2023-05-23T13:33:35.075Z,57.70
2023-05-23T13:36:22.236Z,58.30
2023-05-23T13:39:09.255Z,57.30
2023-05-23T13:42:01.316Z,56.30
2023-05-23T13:44:49.012Z,56.20
2023-05-23T13:47:36.543Z,56.40
2023-05-23T13:50:24.128Z,56.30
2023-05-23T13:53:14.725Z,56.00
2023-05-23T13:56:01.848Z,54.90
2023-05-23T13:58:50.196Z,54.90
2023-05-23T14:01:37.420Z,54.40
2023-05-23T14:04:24.490Z,54.80
2023-05-23T14:07:11.692Z,54.20
2023-05-23T14:09:59.984Z,54.40
2023-05-23T14:12:47.240Z,55.70
2023-05-23T14:15:35.824Z,55.80
2023-05-23T14:18:23.078Z,55.60
2023-05-23T14:21:10.194Z,55.30
2023-05-23T14:23:57.161Z,55.30
2023-05-23T14:26:44.777Z,55.40
2023-05-23T14:29:31.936Z,56.20
2023-05-23T14:32:20.394Z,56.30
2023-05-23T14:35:08.894Z,56.30
2023-05-23T14:37:56.234Z,56.80
2023-05-23T14:40:44.095Z,56.70
2023-05-23T14:43:31.704Z,56.80
2023-05-23T14:46:19.361Z,57.30
2023-05-23T14:49:07.965Z,57.80
2023-05-23T14:51:54.802Z,57.90
2023-05-23T14:54:41.882Z,57.60
2023-05-23T14:57:29.851Z,57.60
2023-05-23T15:00:17.794Z,58.00
2023-05-23T15:03:05.246Z,57.80
2023-05-23T15:05:53.791Z,58.00
2023-05-23T15:08:41.490Z,57.90
2023-05-23T15:11:28.569Z,58.50
2023-05-23T15:14:15.760Z,58.90
2023-05-23T15:17:08.025Z,58.70
2023-05-23T15:19:57.105Z,58.80
2023-05-23T15:22:46.439Z,59.50
2023-05-23T15:25:47.230Z,59.00
2023-05-23T15:28:36.584Z,59.10
2023-05-23T15:31:23.593Z,58.80
2023-05-23T15:34:10.931Z,59.70
2023-05-23T15:36:57.962Z,60.40
2023-05-23T15:39:47.145Z,60.20
2023-05-23T15:42:34.001Z,59.70
2023-05-23T15:45:21.432Z,60.20
2023-05-23T15:48:08.426Z,59.70
2023-05-23T15:50:55.769Z,59.50
2023-05-23T15:53:59.815Z,59.40
2023-05-23T15:56:50.566Z,59.20
2023-05-23T15:59:38.627Z,59.20
2023-05-23T16:02:25.925Z,59.10
2023-05-23T16:05:13.078Z,59.10
2023-05-23T16:08:00.524Z,58.90
2023-05-23T16:10:47.591Z,59.00
2023-05-23T16:13:35.892Z,58.60
2023-05-23T16:16:23.159Z,58.60
2023-05-23T16:19:10.693Z,58.40
2023-05-23T16:21:57.594Z,58.20
2023-05-23T16:24:44.931Z,58.10
2023-05-23T16:27:31.905Z,58.40
2023-05-23T16:30:20.203Z,58.30
2023-05-23T16:33:07.029Z,59.10
2023-05-23T16:35:54.030Z,58.80
2023-05-23T16:38:41.282Z,58.70
2023-05-23T16:41:28.163Z,58.70
2023-05-23T16:44:15.399Z,59.30
2023-05-23T16:47:03.806Z,59.50
2023-05-23T16:49:50.922Z,59.40
2023-05-23T16:52:39.889Z,59.80
2023-05-23T16:55:26.935Z,60.30
2023-05-23T16:58:13.796Z,60.00
2023-05-23T17:01:01.119Z,59.70
2023-05-23T17:03:49.764Z,59.70
2023-05-23T17:06:37.549Z,60.00
2023-05-23T17:09:24.820Z,60.30
2023-05-23T17:12:12.633Z,60.50
2023-05-23T17:14:59.858Z,60.80
2023-05-23T17:17:47.102Z,61.50
2023-05-23T17:20:35.577Z,61.80
2023-05-23T17:23:23.229Z,61.50
2023-05-23T17:26:11.086Z,61.00
2023-05-23T17:28:58.174Z,61.00
2023-05-23T17:31:45.129Z,62.00
2023-05-23T17:34:32.311Z,61.70
2023-05-23T17:37:20.743Z,62.20
2023-05-23T17:40:08.422Z,62.20
2023-05-23T17:42:55.554Z,62.60
2023-05-23T17:45:42.899Z,62.80
2023-05-23T17:48:45.777Z,62.70
2023-05-23T17:51:34.958Z,63.10
2023-05-23T17:54:23.632Z,63.40
2023-05-23T17:57:11.525Z,62.60
2023-05-23T17:59:59.260Z,62.80
2023-05-23T18:02:46.057Z,63.00
2023-05-23T18:05:33.630Z,63.40
2023-05-23T18:08:20.599Z,63.30
2023-05-23T18:11:08.835Z,63.10
2023-05-23T18:13:55.982Z,63.30
2023-05-23T18:16:43.383Z,63.10
2023-05-23T18:19:31.230Z,63.80
2023-05-23T18:22:20.066Z,63.50
2023-05-23T18:25:08.236Z,62.90
2023-05-23T18:27:59.514Z,62.70
2023-05-23T18:30:46.756Z,62.80
2023-05-23T18:33:33.754Z,62.70
2023-05-23T18:36:20.836Z,62.70
2023-05-23T18:39:08.636Z,63.10
2023-05-23T18:41:55.766Z,64.00
2023-05-23T18:44:44.104Z,63.10
2023-05-23T18:47:31.214Z,63.50
2023-05-23T18:50:18.728Z,63.30
2023-05-23T18:53:06.015Z,63.50
2023-05-23T18:55:53.405Z,63.50
2023-05-23T18:58:40.404Z,63.80
2023-05-23T19:01:29.067Z,63.90
2023-05-23T19:04:16.293Z,64.10
2023-05-23T19:07:03.382Z,64.40
2023-05-23T19:09:50.857Z,64.70
2023-05-23T19:12:40.105Z,64.90
2023-05-23T19:15:27.316Z,65.90
2023-05-23T19:18:15.646Z,66.60
2023-05-23T19:21:03.166Z,66.50
2023-05-23T19:23:50.136Z,66.30
2023-05-23T19:26:37.218Z,66.80
2023-05-23T19:29:24.192Z,67.00
2023-05-23T19:32:11.642Z,67.00
2023-05-23T19:35:00.525Z,67.60
2023-05-23T19:37:49.320Z,67.60
2023-05-23T19:40:36.426Z,68.10
2023-05-23T19:43:23.698Z,68.30
2023-05-23T19:46:11.248Z,68.50
2023-05-23T19:48:58.919Z,68.70
2023-05-23T19:51:47.153Z,73.00
2023-05-23T19:54:34.193Z,74.30
2023-05-23T19:57:21.073Z,75.30
2023-05-23T20:00:10.495Z,75.60
2023-05-23T20:02:57.686Z,75.90
2023-05-23T20:05:45.233Z,76.60
2023-05-23T20:08:34.105Z,76.30
2023-05-23T20:11:21.192Z,76.10
2023-05-23T20:14:08.513Z,76.40
2023-05-23T20:16:56.138Z,76.60
2023-05-23T20:19:43.079Z,76.60
2023-05-23T20:22:29.989Z,76.90
2023-05-23T20:25:18.688Z,76.90
2023-05-23T20:28:05.849Z,76.40
2023-05-23T20:30:52.821Z,75.20
2023-05-23T20:33:40.265Z,73.50
2023-05-23T20:36:27.402Z,73.20
2023-05-23T20:39:14.635Z,73.40
2023-05-23T20:42:03.194Z,73.40
2023-05-23T20:44:50.294Z,73.40
2023-05-23T20:47:41.866Z,73.50
2023-05-23T20:50:29.324Z,74.20
2023-05-23T20:53:16.649Z,74.40
2023-05-23T20:56:05.125Z,74.40
2023-05-23T20:58:54.003Z,74.80
2023-05-23T21:01:41.504Z,74.60
2023-05-23T21:04:28.595Z,74.90
2023-05-23T21:07:15.736Z,75.40
2023-05-23T21:10:02.805Z,75.40
2023-05-23T21:12:51.056Z,75.60
2023-05-23T21:15:39.780Z,76.10
2023-05-23T21:18:26.930Z,76.50
2023-05-23T21:21:14.242Z,76.80
2023-05-23T21:24:01.466Z,77.40
2023-05-23T21:26:48.502Z,77.80
2023-05-23T21:29:35.502Z,78.30
2023-05-23T21:32:23.823Z,78.70
2023-05-23T21:35:11.454Z,78.90
2023-05-23T21:37:58.608Z,79.50
2023-05-23T21:40:45.606Z,79.70
2023-05-23T21:43:33.004Z,80.20
2023-05-23T21:46:20.572Z,80.40
2023-05-23T21:49:08.998Z,80.50
2023-05-23T21:51:56.109Z,80.80
2023-05-23T21:54:43.037Z,81.20
2023-05-23T21:57:30.369Z,81.50
2023-05-23T22:00:19.553Z,82.00
2023-05-23T22:03:07.439Z,82.30
2023-05-23T22:05:55.956Z,82.70
2023-05-23T22:08:46.109Z,82.80
2023-05-23T22:11:34.886Z,83.20
2023-05-23T22:14:22.932Z,83.40
2023-05-23T22:17:10.060Z,83.80
2023-05-23T22:19:58.317Z,83.90
2023-05-23T22:22:46.558Z,84.10
2023-05-23T22:25:35.544Z,84.30
2023-05-23T22:28:22.488Z,84.70
2023-05-23T22:31:12.071Z,85.00
2023-05-23T22:34:00.209Z,85.30
2023-05-23T22:36:48.233Z,85.50
2023-05-23T22:39:36.943Z,85.60
2023-05-23T22:42:23.855Z,85.90
2023-05-23T22:45:11.314Z,86.10
2023-05-23T22:48:00.889Z,86.30
2023-05-23T22:50:48.142Z,86.50
2023-05-23T22:53:35.111Z,86.50
2023-05-23T22:56:23.609Z,86.80
2023-05-23T22:59:10.575Z,88.00
2023-05-23T23:01:57.631Z,87.10
2023-05-23T23:04:44.691Z,87.40
2023-05-23T23:07:32.002Z,87.60
2023-05-23T23:10:19.056Z,87.60
2023-05-23T23:13:07.400Z,87.60
2023-05-23T23:15:55.012Z,87.80
2023-05-23T23:18:42.433Z,87.80
2023-05-23T23:21:29.236Z,88.70
2023-05-23T23:24:16.273Z,87.80
2023-05-23T23:27:03.442Z,88.00
2023-05-23T23:29:51.871Z,88.00
2023-05-23T23:32:39.018Z,88.30
2023-05-23T23:35:26.210Z,88.20
2023-05-23T23:38:13.098Z,88.10
2023-05-23T23:41:00.073Z,87.80
2023-05-23T23:43:47.066Z,87.90
2023-05-23T23:46:35.320Z,87.80
2023-05-23T23:49:22.431Z,87.50
2023-05-23T23:52:09.897Z,87.80
2023-05-23T23:54:56.779Z,88.00
2023-05-23T23:57:43.924Z,87.50
